Time;durP1;ratioP1;P1;durP2;ratioP2;P2;SDS_P1;SDS_P2;PMS_P1;PMS_P2;Temp;Humidity;BMP_temperature;BMP_pressure;BME280_temperature;BME280_humidity;BME280_pressure;Samples;Min_cycle;Max_cycle;Signal;HPM_P1;HPM_P2
2023/11/14 00:02:04;;;;;;;0.20;0.20;;;;;;;15.10;100.00;75446.50;4900479;29;20115;-89
2023/11/14 00:04:29;;;;;;;0.20;0.20;;;;;;;15.12;100.00;75454.47;4899997;29;20552;-90
2023/11/14 00:06:54;;;;;;;0.20;0.20;;;;;;;15.09;100.00;75450.88;4915523;29;20111;-90
2023/11/14 00:09:20;;;;;;;0.20;0.20;;;;;;;15.27;100.00;75471.25;4899925;29;20025;-90
2023/11/14 00:11:45;;;;;;;0.20;0.20;;;;;;;15.04;100.00;75444.88;4899659;29;20032;-91
2023/11/14 00:14:11;;;;;;;0.20;0.20;;;;;;;15.07;100.00;75448.47;4899727;29;20050;-90
2023/11/14 00:16:36;;;;;;;0.20;0.20;;;;;;;15.32;100.00;75471.66;4899464;29;20043;-90
2023/11/14 00:19:02;;;;;;;0.20;0.20;;;;;;;15.11;100.00;75450.47;4915296;29;20088;-90
2023/11/14 00:21:27;;;;;;;0.20;0.20;;;;;;;15.26;100.00;75470.66;4899549;29;20118;-90
2023/11/14 00:23:53;;;;;;;0.20;0.20;;;;;;;15.25;100.00;75466.06;4914956;29;20032;-90
2023/11/14 00:26:18;;;;;;;0.20;0.20;;;;;;;15.08;100.00;75446.91;4915727;29;20024;-90
2023/11/14 00:35:29;;;;;;;0.20;0.20;;;;;;;15.04;100.00;75444.28;4927632;29;20145;-89
2023/11/14 00:37:55;;;;;;;0.20;0.20;;;;;;;14.93;100.00;75426.72;4884357;29;20035;-88
2023/11/14 00:40:22;;;;;;;0.20;0.20;;;;;;;14.98;100.00;75434.31;4898521;29;20036;-89
2023/11/14 00:42:48;;;;;;;0.20;0.20;;;;;;;14.89;100.00;75424.13;4881306;29;20107;-89
2023/11/14 00:45:14;;;;;;;0.20;0.20;;;;;;;14.91;100.00;75429.28;4880451;29;20400;-90
2023/11/14 00:47:39;;;;;;;0.30;0.30;;;;;;;15.04;100.00;75438.72;4880070;29;20040;-90
2023/11/14 00:50:05;;;;;;;0.20;0.20;;;;;;;15.06;100.00;75441.69;4880526;29;20021;-90
2023/11/14 00:52:30;;;;;;;0.20;0.20;;;;;;;14.99;100.00;75438.88;4880445;29;20127;-90
2023/11/14 00:54:56;;;;;;;0.20;0.20;;;;;;;15.13;100.00;75457.88;4880394;29;20028;-90
2023/11/14 00:57:21;;;;;;;0.20;0.20;;;;;;;15.07;100.00;75445.09;4880185;29;20124;-90
2023/11/14 00:59:46;;;;;;;0.20;0.20;;;;;;;15.12;100.00;75454.47;4880047;29;20029;-89
2023/11/14 01:02:12;;;;;;;0.20;0.20;;;;;;;14.94;100.00;75433.50;4880431;29;20024;-90
2023/11/14 01:04:38;;;;;;;0.20;0.20;;;;;;;15.01;100.00;75440.69;4879546;29;20477;-89
2023/11/14 01:07:09;;;;;;;0.20;0.20;;;;;;;15.10;100.00;75446.50;4879886;29;20025;-90
2023/11/14 01:09:35;;;;;;;0.20;0.20;;;;;;;15.12;100.00;75448.88;4879831;29;20395;-89
2023/11/14 01:12:01;;;;;;;0.20;0.20;;;;;;;15.10;100.00;75440.94;4908530;29;20040;-89
2023/11/14 01:14:26;;;;;;;0.20;0.20;;;;;;;15.02;100.00;75442.50;4914326;29;20131;-90
2023/11/14 01:16:52;;;;;;;0.20;0.20;;;;;;;15.12;100.00;75451.06;4914591;29;20035;-90
2023/11/14 01:19:17;;;;;;;0.20;0.20;;;;;;;15.11;100.00;75452.66;4898394;29;20540;-90
2023/11/14 01:21:43;;;;;;;0.20;0.20;;;;;;;15.21;100.00;75461.88;4898545;29;20127;-90
2023/11/14 01:24:09;;;;;;;0.20;0.20;;;;;;;15.24;100.00;75465.47;4898518;29;20032;-90
2023/11/14 01:26:35;;;;;;;0.20;0.20;;;;;;;15.25;100.00;75463.28;4898789;29;20122;-89
2023/11/14 01:29:01;;;;;;;0.20;0.20;;;;;;;15.24;100.00;75465.47;4899530;29;20068;-89
2023/11/14 01:31:28;;;;;;;0.20;0.20;;;;;;;15.29;100.00;75473.66;4899699;29;20135;-90
2023/11/14 01:33:55;;;;;;;0.20;0.20;;;;;;;15.10;100.00;75452.06;4899590;29;20086;-90
2023/11/14 01:36:20;;;;;;;0.20;0.20;;;;;;;14.99;100.00;75438.88;4899726;29;20036;-90
2023/11/14 01:38:46;;;;;;;0.20;0.20;;;;;;;15.14;100.00;75456.28;4915743;29;20036;-89
2023/11/14 01:41:12;;;;;;;0.20;0.20;;;;;;;15.27;100.00;75466.28;4877661;29;20120;-89
2023/11/14 01:43:47;;;;;;;0.20;0.20;;;;;;;15.37;100.00;75477.66;4914348;29;20088;-90
2023/11/14 01:46:17;;;;;;;0.20;0.20;;;;;;;15.30;100.00;75474.84;4898174;29;20119;-90
2023/11/14 01:48:52;;;;;;;0.20;0.20;;;;;;;15.43;100.00;75493.22;4897884;29;20032;-89
2023/11/14 01:51:19;;;;;;;0.20;0.20;;;;;;;15.42;100.00;75483.66;4897823;29;20071;-90
2023/11/14 01:53:49;;;;;;;0.20;0.20;;;;;;;15.27;100.00;75468.47;4897968;29;20028;-90
2023/11/14 01:56:16;;;;;;;0.20;0.20;;;;;;;15.42;100.00;75483.66;4897967;29;20364;-90
2023/11/14 01:58:42;;;;;;;0.20;0.20;;;;;;;15.30;100.00;75472.06;4898125;29;20391;-90
2023/11/14 02:01:08;;;;;;;0.20;0.20;;;;;;;15.29;100.00;75468.09;4913508;29;20028;-89
2023/11/14 02:03:35;;;;;;;0.20;0.20;;;;;;;15.28;100.00;75472.44;4914750;29;20104;-89
2023/11/14 02:06:01;;;;;;;0.20;0.20;;;;;;;15.30;100.00;75469.28;4914837;29;20427;-89
2023/11/14 02:08:30;;;;;;;0.20;0.20;;;;;;;15.02;100.00;75436.94;4898085;29;20087;-89
2023/11/14 02:10:56;;;;;;;0.20;0.20;;;;;;;15.24;100.00;75462.09;4914652;29;20020;-90
2023/11/14 02:13:22;;;;;;;0.20;0.20;;;;;;;15.24;100.00;75462.09;4897864;29;20504;-90
2023/11/14 02:15:47;;;;;;;0.20;0.20;;;;;;;15.29;100.00;75470.88;4897739;29;20028;-90
2023/11/14 02:18:17;;;;;;;0.28;0.28;;;;;;;15.33;100.00;75475.66;4913462;29;20028;-90
2023/11/14 02:20:42;;;;;;;0.20;0.20;;;;;;;15.30;100.00;75472.06;4897724;29;20028;-89
2023/11/14 02:23:10;;;;;;;0.20;0.20;;;;;;;15.23;100.00;75466.44;4897771;29;20040;-90
2023/11/14 02:25:36;;;;;;;0.20;0.20;;;;;;;15.14;100.00;75451.31;4897579;29;20036;-90
2023/11/14 02:28:02;;;;;;;0.20;0.20;;;;;;;15.26;100.00;75465.06;4897621;29;20441;-89
2023/11/14 02:30:28;;;;;;;0.20;0.20;;;;;;;15.26;100.00;75470.06;4914470;29;20362;-90
2023/11/14 02:32:53;;;;;;;0.20;0.20;;;;;;;15.26;100.00;75467.25;4913439;29;20047;-90
2023/11/14 02:35:19;;;;;;;0.20;0.20;;;;;;;15.18;100.00;75456.09;4896427;29;20040;-90
2023/11/14 02:37:45;;;;;;;0.20;0.20;;;;;;;15.13;100.00;75457.88;4878919;29;20100;-90
2023/11/14 02:40:13;;;;;;;0.20;0.20;;;;;;;15.12;100.00;75451.06;4878996;29;20132;-90
2023/11/14 02:42:41;;;;;;;0.30;0.30;;;;;;;14.97;100.00;75435.88;4895548;29;20020;-90
2023/11/14 02:45:07;;;;;;;0.20;0.20;;;;;;;15.02;100.00;75436.94;4913370;29;20036;-90
2023/11/14 02:47:32;;;;;;;0.20;0.20;;;;;;;15.07;100.00;75448.47;4897592;29;20063;-90
2023/11/14 02:50:22;;;;;;;0.20;0.20;;;;;;;15.13;100.00;75450.09;4897637;29;20075;-90
2023/11/14 02:52:47;;;;;;;0.20;0.20;;;;;;;15.10;100.00;75449.28;4913443;29;20195;-90
2023/11/14 02:55:13;;;;;;;0.20;0.20;;;;;;;15.07;100.00;75448.47;4897566;29;20068;-90
2023/11/14 02:57:38;;;;;;;0.20;0.20;;;;;;;14.93;100.00;75428.91;4897735;29;20040;-90
2023/11/14 03:00:04;;;;;;;0.20;0.20;;;;;;;15.12;100.00;75454.47;4897581;29;20029;-90
2023/11/14 03:02:30;;;;;;;0.20;0.20;;;;;;;15.12;100.00;75448.88;4898324;29;20381;-90
2023/11/14 03:04:55;;;;;;;0.20;0.20;;;;;;;15.07;100.00;75445.69;4900647;29;20099;-90
2023/11/14 03:07:21;;;;;;;0.20;0.20;;;;;;;15.03;100.00;75443.09;4900864;29;20477;-90
2023/11/14 03:09:46;;;;;;;0.20;0.20;;;;;;;15.12;100.00;75453.84;4900758;29;20028;-90
2023/11/14 03:12:12;;;;;;;0.20;0.20;;;;;;;15.18;100.00;75455.50;4916855;29;20028;-90
2023/11/14 03:14:38;;;;;;;0.20;0.20;;;;;;;15.17;100.00;75459.84;4901075;29;20524;-90
2023/11/14 03:17:04;;;;;;;0.20;0.20;;;;;;;15.23;100.00;75460.88;4900995;29;20116;-90
2023/11/14 03:19:29;;;;;;;0.20;0.20;;;;;;;15.27;100.00;75466.28;4916580;29;20030;-90
2023/11/14 03:21:55;;;;;;;0.20;0.20;;;;;;;15.25;100.00;75469.44;4916761;29;20032;-90
2023/11/14 03:24:21;;;;;;;0.20;0.20;;;;;;;15.33;100.00;75475.66;4916821;29;20061;-90
2023/11/14 03:26:46;;;;;;;0.20;0.20;;;;;;;15.23;100.00;75466.44;4917871;29;20028;-90
2023/11/14 03:29:12;;;;;;;0.20;0.20;;;;;;;15.13;100.00;75455.69;4900725;29;20035;-90
2023/11/14 03:31:38;;;;;;;0.20;0.20;;;;;;;15.17;100.00;75454.88;4897170;29;20034;-90
2023/11/14 03:34:07;;;;;;;0.20;0.20;;;;;;;15.18;100.00;75456.09;4879824;29;20025;-90
2023/11/14 03:36:33;;;;;;;0.20;0.20;;;;;;;15.15;100.00;75455.28;4898630;29;20485;-90
2023/11/14 03:38:58;;;;;;;0.20;0.20;;;;;;;15.19;100.00;75462.25;4882002;29;20365;-90
2023/11/14 03:41:24;;;;;;;0.20;0.20;;;;;;;15.15;100.00;75455.28;4889180;29;20081;-90
2023/11/14 03:43:49;;;;;;;0.20;0.20;;;;;;;15.25;100.00;75463.88;4916035;29;20063;-90
2023/11/14 03:46:15;;;;;;;0.20;0.20;;;;;;;15.18;100.00;75458.28;4900899;29;20035;-90
2023/11/14 03:48:42;;;;;;;0.20;0.20;;;;;;;15.18;100.00;75458.88;4901146;29;20370;-90
2023/11/14 03:51:09;;;;;;;0.20;0.20;;;;;;;14.95;100.00;75428.53;4900585;29;20039;-90
2023/11/14 03:53:39;;;;;;;0.20;0.20;;;;;;;14.92;100.00;75431.09;4900449;29;20381;-90
2023/11/14 03:56:05;;;;;;;0.20;0.20;;;;;;;15.03;100.00;75440.91;4900317;29;20349;-90
2023/11/14 03:58:33;;;;;;;0.20;0.20;;;;;;;15.01;100.00;75437.91;4900543;29;20038;-90
2023/11/14 04:00:59;;;;;;;0.20;0.20;;;;;;;15.02;100.00;75436.31;4900121;29;20481;-89
2023/11/14 04:03:24;;;;;;;0.20;0.20;;;;;;;14.78;100.00;75408.16;4915471;29;20032;-90
2023/11/14 04:05:49;;;;;;;0.20;0.20;;;;;;;14.70;100.00;75409.69;4899765;29;20036;-90
2023/11/14 04:08:16;;;;;;;0.20;0.20;;;;;;;14.70;100.00;75398.56;4916976;29;20043;-90
2023/11/14 04:20:47;;;;;;;0.20;0.20;;;;;;;14.56;100.00;75388.56;4919033;29;20096;-90
2023/11/14 04:23:12;;;;;;;0.28;0.28;;;;;;;14.65;100.00;75393.78;4900225;29;20273;-90
2023/11/14 04:25:38;;;;;;;0.20;0.20;;;;;;;14.82;100.00;75413.56;4899674;29;20119;-90
2023/11/14 04:28:03;;;;;;;0.20;0.20;;;;;;;14.80;100.00;75416.13;4915283;29;20042;-89
2023/11/14 04:30:29;;;;;;;0.20;0.20;;;;;;;14.58;100.00;75384.78;4899491;29;20028;-90
2023/11/14 04:32:54;;;;;;;0.20;0.20;;;;;;;14.58;100.00;75390.97;4899686;29;20046;-90
2023/11/14 04:35:20;;;;;;;0.20;0.20;;;;;;;14.72;100.00;75406.53;4883916;29;20060;-90
2023/11/14 04:37:48;;;;;;;0.20;0.20;;;;;;;14.72;100.00;75403.75;4880822;29;20119;-90
2023/11/14 04:40:13;;;;;;;0.20;0.20;;;;;;;14.60;100.00;75393.38;4880406;29;20100;-90
2023/11/14 04:42:39;;;;;;;0.20;0.20;;;;;;;14.56;100.00;75383.00;4897287;29;20032;-90
2023/11/14 04:45:05;;;;;;;0.20;0.20;;;;;;;14.64;100.00;75398.13;4899300;29;20070;-90
2023/11/14 04:47:31;;;;;;;0.20;0.20;;;;;;;14.52;100.00;75383.78;4899821;29;20032;-90
2023/11/14 04:49:57;;;;;;;0.20;0.20;;;;;;;14.58;100.00;75384.78;4898529;29;20035;-90
2023/11/14 04:52:22;;;;;;;0.20;0.20;;;;;;;14.53;100.00;75379.41;4898786;29;20083;-90
2023/11/14 04:54:49;;;;;;;0.20;0.20;;;;;;;14.70;100.00;75398.56;4898988;29;20038;-90
2023/11/14 04:57:15;;;;;;;0.20;0.20;;;;;;;14.49;100.00;75379.56;4914659;29;20488;-90
2023/11/14 04:59:40;;;;;;;0.20;0.20;;;;;;;14.57;100.00;75395.31;4898740;29;20040;-90
2023/11/14 05:02:05;;;;;;;0.20;0.20;;;;;;;14.46;100.00;75376.56;4898884;29;20083;-90
2023/11/14 05:04:31;;;;;;;0.20;0.20;;;;;;;14.57;100.00;75384.19;4898544;29;20032;-90
2023/11/14 05:06:56;;;;;;;0.20;0.20;;;;;;;14.64;100.00;75394.75;4898603;29;20035;-90
2023/11/14 05:09:22;;;;;;;0.20;0.20;;;;;;;14.70;100.00;75404.75;4898566;29;20036;-90
2023/11/14 05:11:47;;;;;;;0.20;0.20;;;;;;;14.60;100.00;75387.19;4914529;29;20569;-90
2023/11/14 05:14:13;;;;;;;0.20;0.20;;;;;;;14.51;100.00;75381.97;4898739;29;20366;-90
2023/11/14 05:16:40;;;;;;;0.20;0.20;;;;;;;14.51;100.00;75377.00;4898852;29;20040;-89
2023/11/14 05:19:06;;;;;;;0.20;0.20;;;;;;;14.56;100.00;75388.56;4898331;29;20393;-90
2023/11/14 05:21:31;;;;;;;0.20;0.20;;;;;;;14.69;100.00;75403.53;4898817;29;20099;-90
2023/11/14 05:23:57;;;;;;;0.20;0.20;;;;;;;14.34;100.00;75359.41;4898652;29;20489;-90
2023/11/14 05:26:22;;;;;;;0.20;0.20;;;;;;;14.78;100.00;75416.50;4898599;29;20068;-90
2023/11/14 05:28:49;;;;;;;0.20;0.20;;;;;;;14.79;100.00;75420.50;4898815;29;20028;-90
2023/11/14 05:31:15;;;;;;;0.20;0.20;;;;;;;14.76;100.00;75411.34;4898657;29;20118;-90
2023/11/14 05:33:40;;;;;;;0.20;0.20;;;;;;;14.66;100.00;75394.97;4915302;29;20281;-90
2023/11/14 05:36:06;;;;;;;0.20;0.20;;;;;;;14.70;100.00;75398.56;4869677;29;20562;-89
2023/11/14 05:38:32;;;;;;;0.20;0.20;;;;;;;14.73;100.00;75404.94;4861182;29;20025;-90
2023/11/14 05:40:58;;;;;;;0.20;0.20;;;;;;;14.80;100.00;75416.13;4864970;29;20048;-91
2023/11/14 05:43:24;;;;;;;0.20;0.20;;;;;;;14.80;100.00;75416.72;4880023;29;20029;-90
2023/11/14 05:45:50;;;;;;;0.20;0.20;;;;;;;14.86;100.00;75420.50;4879852;29;20037;-90
2023/11/14 05:48:19;;;;;;;0.20;0.20;;;;;;;14.74;100.00;75403.38;4879914;29;20481;-90
2023/11/14 05:50:46;;;;;;;0.20;0.20;;;;;;;14.95;100.00;75434.09;4879836;29;20396;-90
2023/11/14 05:53:11;;;;;;;0.20;0.20;;;;;;;14.91;100.00;75429.28;4879749;29;20025;-90
2023/11/14 05:55:37;;;;;;;0.20;0.20;;;;;;;14.82;100.00;75415.75;4879590;29;20088;-90
2023/11/14 05:58:02;;;;;;;0.20;0.20;;;;;;;14.98;100.00;75437.09;4879676;29;20029;-90
2023/11/14 06:00:28;;;;;;;0.20;0.20;;;;;;;14.94;100.00;75427.31;4879167;29;20029;-90
2023/11/14 06:02:54;;;;;;;0.20;0.20;;;;;;;15.22;100.00;75465.25;4879419;29;20028;-90
2023/11/14 06:05:19;;;;;;;0.20;0.20;;;;;;;15.65;100.00;75522.38;4879403;29;20055;-90
2023/11/14 06:07:44;;;;;;;0.20;0.20;;;;;;;16.22;100.00;75583.97;4879763;29;20033;-90
2023/11/14 06:10:11;;;;;;;0.20;0.20;;;;;;;16.42;100.00;75607.38;4879666;29;20028;-90
2023/11/14 06:12:39;;;;;;;0.20;0.20;;;;;;;16.86;100.00;75652.78;4895581;29;20059;-90
2023/11/14 06:15:07;;;;;;;0.20;0.20;;;;;;;17.24;100.00;75697.78;4897760;29;20032;-87
2023/11/14 06:17:32;;;;;;;0.20;0.20;;;;;;;17.66;100.00;75744.78;4913369;29;20035;-88
2023/11/14 06:19:58;;;;;;;0.20;0.20;;;;;;;17.86;100.00;75770.41;4897508;29;20020;-87
2023/11/14 06:22:23;;;;;;;0.20;0.20;;;;;;;18.09;100.00;75798.03;4914528;29;20028;-87
2023/11/14 06:24:48;;;;;;;0.20;0.20;;;;;;;18.00;100.00;75784.41;4897393;29;20038;-87
2023/11/14 06:27:14;;;;;;;0.20;0.20;;;;;;;18.38;100.00;75831.66;4897351;29;20028;-87
2023/11/14 06:29:40;;;;;;;0.30;0.30;;;;;;;18.50;100.00;75846.66;4891487;29;20489;-87
2023/11/14 06:32:05;;;;;;;0.22;0.22;;;;;;;18.54;100.00;75857.06;4878738;29;20385;-87
2023/11/14 06:34:31;;;;;;;0.20;0.20;;;;;;;18.45;100.00;75840.06;4878224;29;20025;-86
2023/11/14 06:36:56;;;;;;;0.20;0.20;;;;;;;18.96;100.00;75902.94;4878724;29;20492;-87
2023/11/14 06:39:22;;;;;;;0.20;0.20;;;;;;;18.81;100.00;75880.53;4882000;29;20048;-87
2023/11/14 06:41:49;;;;;;;0.20;0.20;;;;;;;18.57;100.00;75854.47;4882570;29;20020;-87
2023/11/14 06:44:15;;;;;;;0.20;0.20;;;;;;;17.94;100.00;75777.22;4882442;29;20021;-86
2023/11/14 06:46:40;;;;;;;0.20;0.20;;;;;;;17.72;100.00;75756.97;4899095;29;20096;-87
2023/11/14 06:49:06;;;;;;;0.20;0.20;;;;;;;17.49;100.00;75727.19;4882473;29;20028;-87
2023/11/14 06:51:31;;;;;;;0.20;0.20;;;;;;;17.60;100.00;75745.97;4882524;29;20032;-87
2023/11/14 06:53:56;;;;;;;0.20;0.20;;;;;;;17.49;100.00;75724.38;4882733;29;20029;-87
2023/11/14 06:56:22;;;;;;;0.20;0.20;;;;;;;17.63;100.00;75744.00;4882567;29;20036;-87
2023/11/14 06:58:47;;;;;;;0.20;0.20;;;;;;;17.36;100.00;75705.97;4881910;29;20029;-87
2023/11/14 07:01:13;;;;;;;0.20;0.20;;;;;;;17.36;100.00;75717.16;4881312;29;20029;-87
2023/11/14 07:03:39;;;;;;;0.20;0.20;;;;;;;17.50;100.00;75722.78;4880857;29;20461;-87
2023/11/14 07:06:05;;;;;;;0.20;0.20;;;;;;;17.20;100.00;75693.56;4881972;29;20054;-87
2023/11/14 07:08:31;;;;;;;0.20;0.20;;;;;;;18.71;100.00;75865.09;4881647;29;20618;-87
2023/11/14 07:10:57;;;;;;;0.20;0.20;;;;;;;19.51;100.00;75971.22;4885139;29;20196;-87
2023/11/14 07:13:23;;;;;;;0.20;0.20;;;;;;;19.35;100.00;75947.00;4899138;29;20279;-87
2023/11/14 07:15:48;;;;;;;0.20;0.20;;;;;;;18.61;100.00;75858.69;4917007;29;20051;-87
2023/11/14 07:18:14;;;;;;;0.20;0.20;;;;;;;18.33;100.00;75826.84;4900124;29;20507;-86
2023/11/14 07:20:39;;;;;;;0.20;0.20;;;;;;;18.24;100.00;75815.44;4899858;29;20492;-87
2023/11/14 07:23:05;;;;;;;0.20;0.20;;;;;;;18.37;100.00;75831.03;4899899;29;20024;-87
2023/11/14 07:25:34;;;;;;;0.20;0.20;;;;;;;18.39;100.00;75835.66;4901117;29;20102;-86
2023/11/14 07:28:00;;;;;;;0.20;0.20;;;;;;;18.43;100.00;75838.25;4899914;29;20036;-87
2023/11/14 07:30:27;;;;;;;0.20;0.20;;;;;;;18.81;100.00;75883.31;4899693;29;20396;-87
2023/11/14 07:32:53;;;;;;;0.20;0.20;;;;;;;18.88;100.00;75893.31;4899632;29;20025;-86
2023/11/14 07:35:21;;;;;;;0.20;0.20;;;;;;;18.61;100.00;75862.06;4899658;29;20028;-86
2023/11/14 07:37:47;;;;;;;0.20;0.20;;;;;;;18.63;100.00;75861.66;4899527;29;20036;-86
2023/11/14 07:40:13;;;;;;;0.20;0.20;;;;;;;19.37;100.00;75949.38;4899425;29;20044;-86
2023/11/14 07:42:38;;;;;;;0.20;0.20;;;;;;;20.28;100.00;76055.78;4916588;29;20068;-86
2023/11/14 07:45:06;;;;;;;0.20;0.20;;;;;;;21.23;96.91;76165.44;4902874;29;20039;-86
2023/11/14 07:47:32;;;;;;;0.20;0.20;;;;;;;21.52;92.66;76201.97;4878850;29;20052;-86
2023/11/14 07:49:58;;;;;;;0.20;0.20;;;;;;;22.15;91.17;76277.19;4861663;29;20071;-85
2023/11/14 07:52:23;;;;;;;0.20;0.20;;;;;;;22.36;87.27;76299.06;4862052;29;20021;-85
2023/11/14 07:54:52;;;;;;;0.20;0.20;;;;;;;23.36;77.01;76414.25;4862116;29;20375;-85
2023/11/14 07:57:18;;;;;;;0.20;0.20;;;;;;;22.80;78.66;76353.03;4879150;29;20021;-88
2023/11/14 07:59:44;;;;;;;0.20;0.20;;;;;;;21.59;87.34;76208.19;4878554;29;20025;-87
2023/11/14 08:02:10;;;;;;;0.20;0.20;;;;;;;21.78;85.49;76233.25;4862429;29;20077;-86
2023/11/14 08:04:35;;;;;;;0.20;0.20;;;;;;;21.57;87.29;76207.97;4883911;29;20025;-85
2023/11/14 08:07:01;;;;;;;0.10;0.10;;;;;;;21.82;85.50;76235.25;4866379;29;20034;-85
2023/11/14 08:09:28;;;;;;;0.20;0.20;;;;;;;21.00;91.34;76141.19;4864573;29;20025;-86
2023/11/14 08:11:54;;;;;;;0.20;0.20;;;;;;;21.07;91.42;76154.63;4884482;29;20388;-85
2023/11/14 08:14:20;;;;;;;0.20;0.20;;;;;;;21.23;91.41;76168.25;4899213;29;20078;-87
2023/11/14 08:16:46;;;;;;;0.20;0.20;;;;;;;21.59;88.15;76208.19;4898620;29;20147;-87
2023/11/14 08:19:11;;;;;;;0.20;0.20;;;;;;;22.02;86.24;76260.94;4898890;29;20178;-86
2023/11/14 08:21:36;;;;;;;0.20;0.20;;;;;;;22.47;84.86;76312.28;4886028;29;20091;-86
2023/11/14 08:24:02;;;;;;;0.20;0.20;;;;;;;22.64;83.43;76331.56;4880034;29;20020;-86
2023/11/14 08:26:29;;;;;;;0.20;0.20;;;;;;;22.68;81.37;76336.97;4880663;29;20036;-86
2023/11/14 08:28:54;;;;;;;0.20;0.20;;;;;;;22.90;78.47;76365.69;4880862;29;20037;-87
2023/11/14 08:31:20;;;;;;;0.20;0.20;;;;;;;22.56;81.55;76321.94;4881508;29;20028;-87
2023/11/14 08:33:45;;;;;;;0.20;0.20;;;;;;;23.02;79.28;76379.56;4880421;29;20028;-87
2023/11/14 08:36:11;;;;;;;0.20;0.20;;;;;;;23.09;76.83;76381.75;4879974;29;20043;-87
2023/11/14 08:38:37;;;;;;;0.20;0.20;;;;;;;22.64;78.93;76335.00;4880136;29;20037;-87
2023/11/14 08:41:03;;;;;;;0.20;0.20;;;;;;;22.57;78.69;76325.94;4884279;29;20032;-87
2023/11/14 08:43:28;;;;;;;0.20;0.20;;;;;;;23.25;73.16;76401.00;4898528;29;20641;-87
2023/11/14 08:45:54;;;;;;;0.20;0.20;;;;;;;23.40;72.58;76421.31;4898389;29;20040;-86
2023/11/14 08:48:21;;;;;;;0.20;0.20;;;;;;;23.29;74.71;76410.88;4898392;29;20136;-86
2023/11/14 08:50:47;;;;;;;0.20;0.20;;;;;;;23.58;73.33;76440.16;4915250;29;20111;-86
2023/11/14 08:53:13;;;;;;;0.20;0.20;;;;;;;23.30;72.67;76406.44;4899568;29;20502;-86
2023/11/14 08:55:39;;;;;;;0.20;0.20;;;;;;;23.40;73.08;76421.31;4898325;29;20119;-86
2023/11/14 08:58:06;;;;;;;0.20;0.20;;;;;;;23.55;70.10;76441.59;4898692;29;20159;-85
2023/11/14 09:00:31;;;;;;;0.20;0.20;;;;;;;23.51;70.14;76437.97;4897582;29;20028;-86
2023/11/14 09:02:58;;;;;;;0.20;0.20;;;;;;;23.38;70.73;76421.69;4914037;29;20024;-86
2023/11/14 09:05:24;;;;;;;0.20;0.20;;;;;;;22.77;74.07;76350.03;4897936;29;20304;-86
2023/11/14 09:07:50;;;;;;;0.20;0.20;;;;;;;23.36;72.45;76419.91;4915115;29;20206;-86
2023/11/14 09:10:16;;;;;;;0.20;0.20;;;;;;;23.22;69.57;76397.41;4914951;29;20568;-86
2023/11/14 09:12:41;;;;;;;0.20;0.20;;;;;;;23.26;69.03;76407.84;4897907;29;20035;-86
2023/11/14 09:15:09;;;;;;;0.20;0.20;;;;;;;23.18;69.43;76398.22;4915169;29;20036;-87
2023/11/14 09:17:34;;;;;;;0.20;0.20;;;;;;;23.45;68.38;76427.94;4913779;29;20056;-86
2023/11/14 09:20:00;;;;;;;0.20;0.20;;;;;;;23.36;69.55;76414.25;4914735;29;20488;-86
2023/11/14 09:22:28;;;;;;;0.20;0.20;;;;;;;23.43;70.00;76425.50;4913557;29;20032;-86
2023/11/14 09:24:54;;;;;;;0.20;0.20;;;;;;;23.52;71.24;76435.75;4897927;29;20036;-86
2023/11/14 09:27:22;;;;;;;0.20;0.20;;;;;;;23.76;70.33;76464.09;4914529;29;20032;-86
2023/11/14 09:29:48;;;;;;;0.20;0.20;;;;;;;23.13;69.02;76383.75;4897902;29;20028;-85
2023/11/14 09:32:14;;;;;;;0.20;0.20;;;;;;;23.59;67.57;76446.41;4914739;29;20456;-86
2023/11/14 09:34:39;;;;;;;0.20;0.20;;;;;;;23.84;65.30;76468.06;4897576;29;20032;-86
2023/11/14 09:37:04;;;;;;;0.20;0.20;;;;;;;23.92;65.96;76482.78;4883972;29;20029;-86
2023/11/14 09:39:31;;;;;;;0.20;0.20;;;;;;;23.73;66.10;76454.81;4860317;29;20131;-85
2023/11/14 09:41:57;;;;;;;0.20;0.20;;;;;;;23.69;67.72;76455.66;4899759;29;20024;-86
2023/11/14 09:44:25;;;;;;;0.20;0.20;;;;;;;23.19;69.35;76394.41;4897499;29;20594;-85
2023/11/14 09:46:52;;;;;;;0.20;0.20;;;;;;;23.63;66.80;76451.25;4897563;29;20032;-86
2023/11/14 09:49:17;;;;;;;0.17;0.17;;;;;;;23.96;65.15;76485.34;4897410;29;20031;-86
2023/11/14 09:51:45;;;;;;;0.20;0.20;;;;;;;24.16;63.58;76508.84;4897539;29;20024;-86
2023/11/14 09:54:15;;;;;;;0.20;0.20;;;;;;;24.53;62.59;76552.84;4897573;29;20032;-85
2023/11/14 09:56:44;;;;;;;0.20;0.20;;;;;;;23.76;64.77;76461.88;4897796;29;20476;-85
2023/11/14 09:59:10;;;;;;;0.20;0.20;;;;;;;23.62;64.25;76444.38;4897582;29;20398;-85
2023/11/14 10:01:39;;;;;;;0.20;0.20;;;;;;;24.33;62.33;76528.13;4898065;29;20028;-85
2023/11/14 10:04:06;;;;;;;0.20;0.20;;;;;;;24.52;61.97;76551.66;4897517;29;20148;-85
2023/11/14 10:06:35;;;;;;;0.20;0.20;;;;;;;24.30;60.06;76527.94;4897617;29;20099;-86
2023/11/14 10:09:02;;;;;;;0.20;0.20;;;;;;;24.64;59.52;76567.75;4897620;29;20579;-86
2023/11/14 10:11:46;;;;;;;0.20;0.20;;;;;;;24.16;59.79;76513.91;4897898;29;20032;-86
2023/11/14 10:14:13;;;;;;;0.20;0.20;;;;;;;24.46;57.86;76541.00;4918037;29;20607;-86
2023/11/14 10:16:38;;;;;;;0.20;0.20;;;;;;;24.42;57.92;76539.59;4920307;29;20484;-85
2023/11/14 10:19:12;;;;;;;0.20;0.20;;;;;;;24.67;56.06;76574.78;4917122;29;20024;-85
2023/11/14 10:21:38;;;;;;;0.20;0.20;;;;;;;24.88;54.85;76596.06;4901936;29;20388;-85
2023/11/14 10:24:17;;;;;;;0.20;0.20;;;;;;;24.54;57.48;76556.88;4918081;29;20093;-85
2023/11/14 10:26:52;;;;;;;0.20;0.20;;;;;;;24.38;57.95;76534.78;4908624;29;20045;-85
2023/11/14 10:29:22;;;;;;;0.20;0.20;;;;;;;24.19;58.04;76512.47;4899661;29;20024;-86
2023/11/14 10:31:48;;;;;;;0.20;0.20;;;;;;;25.04;55.62;76613.13;4899971;29;20028;-86
2023/11/14 10:34:27;;;;;;;0.20;0.20;;;;;;;24.63;56.82;76563.72;4899367;29;20031;-85
2023/11/14 10:36:54;;;;;;;0.20;0.20;;;;;;;24.10;60.29;76503.84;4882266;29;20032;-85
2023/11/14 10:39:20;;;;;;;0.10;0.10;;;;;;;24.41;58.42;76538.41;4882846;29;20049;-85
2023/11/14 10:41:46;;;;;;;0.20;0.20;;;;;;;24.19;59.93;76517.53;4909386;29;20024;-85
2023/11/14 10:44:13;;;;;;;0.20;0.20;;;;;;;24.38;58.27;76531.94;4918073;29;20065;-85
2023/11/14 10:46:59;;;;;;;0.10;0.10;;;;;;;24.41;57.54;76537.81;4918165;29;20067;-85
2023/11/14 10:49:24;;;;;;;0.20;0.20;;;;;;;23.74;60.14;76458.84;4900685;29;20433;-86
2023/11/14 10:51:54;;;;;;;0.20;0.20;;;;;;;23.23;62.49;76399.22;4900606;29;20079;-86
2023/11/14 10:54:20;;;;;;;0.20;0.20;;;;;;;23.40;62.61;76416.25;4917803;29;20028;-86
2023/11/14 10:56:46;;;;;;;0.20;0.20;;;;;;;23.49;65.26;76429.94;4900999;29;20134;-85
2023/11/14 10:59:13;;;;;;;0.20;0.20;;;;;;;22.91;65.92;76366.94;4917676;29;20028;-86
2023/11/14 11:01:48;;;;;;;0.20;0.20;;;;;;;23.56;64.37;76437.75;4900634;29;20123;-86
2023/11/14 11:04:16;;;;;;;0.20;0.20;;;;;;;23.15;64.77;76391.78;4900521;29;20035;-86
2023/11/14 11:06:43;;;;;;;0.20;0.20;;;;;;;23.60;64.45;76442.56;4900566;29;20381;-86
2023/11/14 11:09:10;;;;;;;0.20;0.20;;;;;;;23.28;65.12;76404.63;4900505;29;20028;-85
2023/11/14 11:11:41;;;;;;;0.20;0.20;;;;;;;23.45;66.27;76425.09;4900507;29;20365;-86
2023/11/14 11:14:10;;;;;;;0.20;0.20;;;;;;;23.76;65.51;76464.69;4898406;29;20091;-86
2023/11/14 11:16:43;;;;;;;0.20;0.20;;;;;;;22.89;69.62;76358.84;4899349;29;20031;-86
2023/11/14 11:19:11;;;;;;;0.20;0.20;;;;;;;22.72;71.91;76344.00;4897260;29;20032;-87
2023/11/14 11:21:36;;;;;;;0.20;0.20;;;;;;;22.48;72.28;76316.34;4897459;29;20032;-87
2023/11/14 11:24:06;;;;;;;0.20;0.20;;;;;;;22.90;72.01;76356.63;4897005;29;20039;-87
2023/11/14 11:26:32;;;;;;;0.20;0.20;;;;;;;22.36;73.30;76301.88;4897545;29;20036;-87
2023/11/14 11:28:59;;;;;;;0.20;0.20;;;;;;;22.40;74.86;76303.28;4897286;29;20020;-87
2023/11/14 11:31:25;;;;;;;0.20;0.20;;;;;;;22.09;77.63;76266.53;4898027;29;20163;-87
2023/11/14 11:33:50;;;;;;;0.20;0.20;;;;;;;22.16;78.65;76277.81;4897822;29;20126;-87
2023/11/14 11:36:25;;;;;;;0.20;0.20;;;;;;;22.23;78.12;76280.59;4897665;29;20073;-87
2023/11/14 11:39:06;;;;;;;0.20;0.20;;;;;;;21.79;79.12;76228.84;4890251;29;20440;-87
2023/11/14 11:41:53;;;;;;;0.20;0.20;;;;;;;22.06;78.91;76262.94;4883384;29;20065;-88
2023/11/14 11:44:19;;;;;;;0.20;0.20;;;;;;;21.88;78.46;76244.69;4913336;29;20044;-85